sensor_id;sensor_type;location;lat;lon;timestamp;P1;durP1;ratioP1;P2;durP2;ratioP2
35907;SDS011;22003;50.320;8.054;2022-09-09T03:03:31;2.80;;;1.10;;
35907;SDS011;22003;50.320;8.054;2022-09-09T03:10:35;5.93;;;1.20;;
35907;SDS011;22003;50.320;8.054;2022-09-09T04:04:30;5.03;;;1.60;;
35907;SDS011;22003;50.320;8.054;2022-09-09T04:06:55;7.63;;;1.83;;
35907;SDS011;22003;50.320;8.054;2022-09-09T04:09:20;3.22;;;1.40;;
35907;SDS011;22003;50.320;8.054;2022-09-09T04:11:46;4.07;;;1.52;;
35907;SDS011;22003;50.320;8.054;2022-09-09T04:14:11;3.15;;;1.20;;
35907;SDS011;22003;50.320;8.054;2022-09-09T04:16:37;4.30;;;1.30;;
35907;SDS011;22003;50.320;8.054;2022-09-09T04:19:03;2.80;;;1.20;;
35907;SDS011;22003;50.320;8.054;2022-09-09T04:21:29;2.92;;;1.67;;
35907;SDS011;22003;50.320;8.054;2022-09-09T04:23:55;11.05;;;1.95;;
35907;SDS011;22003;50.320;8.054;2022-09-09T04:26:21;4.65;;;1.50;;
35907;SDS011;22003;50.320;8.054;2022-09-09T04:28:46;6.57;;;1.52;;
35907;SDS011;22003;50.320;8.054;2022-09-09T04:31:16;4.50;;;1.30;;
35907;SDS011;22003;50.320;8.054;2022-09-09T04:33:45;3.97;;;1.67;;
35907;SDS011;22003;50.320;8.054;2022-09-09T04:36:11;6.75;;;1.58;;
35907;SDS011;22003;50.320;8.054;2022-09-09T04:38:37;5.70;;;1.60;;
35907;SDS011;22003;50.320;8.054;2022-09-09T04:41:02;6.55;;;1.42;;
35907;SDS011;22003;50.320;8.054;2022-09-09T04:43:28;3.55;;;1.40;;
35907;SDS011;22003;50.320;8.054;2022-09-09T04:45:55;7.97;;;1.55;;
35907;SDS011;22003;50.320;8.054;2022-09-09T04:48:21;3.33;;;1.38;;
35907;SDS011;22003;50.320;8.054;2022-09-09T04:51:06;3.60;;;1.50;;
35907;SDS011;22003;50.320;8.054;2022-09-09T04:53:34;4.00;;;1.38;;
35907;SDS011;22003;50.320;8.054;2022-09-09T04:58:29;5.13;;;1.50;;
35907;SDS011;22003;50.320;8.054;2022-09-09T05:00:55;7.10;;;1.40;;
35907;SDS011;22003;50.320;8.054;2022-09-09T05:03:20;2.33;;;1.42;;
35907;SDS011;22003;50.320;8.054;2022-09-09T05:05:46;2.72;;;1.35;;
35907;SDS011;22003;50.320;8.054;2022-09-09T05:08:12;8.25;;;2.45;;
35907;SDS011;22003;50.320;8.054;2022-09-09T05:10:38;5.10;;;1.80;;
35907;SDS011;22003;50.320;8.054;2022-09-09T05:13:04;7.60;;;1.58;;
35907;SDS011;22003;50.320;8.054;2022-09-09T05:15:30;7.85;;;1.88;;
35907;SDS011;22003;50.320;8.054;2022-09-09T05:17:59;10.77;;;1.90;;
35907;SDS011;22003;50.320;8.054;2022-09-09T05:20:25;8.60;;;1.90;;
35907;SDS011;22003;50.320;8.054;2022-09-09T05:22:52;4.88;;;1.27;;
35907;SDS011;22003;50.320;8.054;2022-09-09T05:25:19;9.10;;;1.38;;
35907;SDS011;22003;50.320;8.054;2022-09-09T05:27:44;6.30;;;1.85;;
35907;SDS011;22003;50.320;8.054;2022-09-09T05:30:09;3.08;;;1.33;;
35907;SDS011;22003;50.320;8.054;2022-09-09T05:32:35;9.98;;;1.60;;
35907;SDS011;22003;50.320;8.054;2022-09-09T05:35:01;5.07;;;2.95;;
35907;SDS011;22003;50.320;8.054;2022-09-09T05:37:27;8.23;;;1.30;;
35907;SDS011;22003;50.320;8.054;2022-09-09T05:39:52;8.73;;;1.60;;
35907;SDS011;22003;50.320;8.054;2022-09-09T05:42:18;4.32;;;1.48;;
35907;SDS011;22003;50.320;8.054;2022-09-09T05:44:43;5.63;;;1.88;;
35907;SDS011;22003;50.320;8.054;2022-09-09T05:47:09;7.57;;;1.92;;
35907;SDS011;22003;50.320;8.054;2022-09-09T05:49:35;9.00;;;2.55;;
35907;SDS011;22003;50.320;8.054;2022-09-09T05:52:00;14.63;;;2.00;;
35907;SDS011;22003;50.320;8.054;2022-09-09T05:54:28;8.60;;;1.83;;
35907;SDS011;22003;50.320;8.054;2022-09-09T05:56:54;10.20;;;1.60;;
35907;SDS011;22003;50.320;8.054;2022-09-09T05:59:19;5.15;;;1.70;;
35907;SDS011;22003;50.320;8.054;2022-09-09T06:01:45;2.53;;;1.35;;
35907;SDS011;22003;50.320;8.054;2022-09-09T06:04:11;3.58;;;1.65;;
35907;SDS011;22003;50.320;8.054;2022-09-09T06:06:37;9.18;;;1.98;;
35907;SDS011;22003;50.320;8.054;2022-09-09T06:09:05;8.38;;;2.08;;
35907;SDS011;22003;50.320;8.054;2022-09-09T06:11:34;2.15;;;1.33;;
35907;SDS011;22003;50.320;8.054;2022-09-09T06:14:01;4.38;;;1.83;;
35907;SDS011;22003;50.320;8.054;2022-09-09T06:16:27;4.15;;;2.30;;
35907;SDS011;22003;50.320;8.054;2022-09-09T06:18:54;5.97;;;1.85;;
35907;SDS011;22003;50.320;8.054;2022-09-09T06:21:22;5.68;;;2.08;;
35907;SDS011;22003;50.320;8.054;2022-09-09T06:23:48;3.70;;;1.40;;
35907;SDS011;22003;50.320;8.054;2022-09-09T06:26:17;3.30;;;1.60;;
35907;SDS011;22003;50.320;8.054;2022-09-09T06:28:48;3.65;;;1.80;;
35907;SDS011;22003;50.320;8.054;2022-09-09T06:31:15;4.35;;;1.67;;
35907;SDS011;22003;50.320;8.054;2022-09-09T06:33:43;3.88;;;1.52;;
35907;SDS011;22003;50.320;8.054;2022-09-09T06:36:13;7.63;;;3.42;;
35907;SDS011;22003;50.320;8.054;2022-09-09T06:38:40;20.38;;;9.35;;
35907;SDS011;22003;50.320;8.054;2022-09-09T06:41:07;7.70;;;2.45;;
35907;SDS011;22003;50.320;8.054;2022-09-09T06:43:33;6.80;;;1.70;;
35907;SDS011;22003;50.320;8.054;2022-09-09T06:46:01;13.70;;;3.33;;
35907;SDS011;22003;50.320;8.054;2022-09-09T06:48:29;5.43;;;2.08;;
35907;SDS011;22003;50.320;8.054;2022-09-09T06:51:05;5.00;;;1.70;;
35907;SDS011;22003;50.320;8.054;2022-09-09T06:53:31;11.60;;;2.10;;
35907;SDS011;22003;50.320;8.054;2022-09-09T06:55:59;3.72;;;2.03;;
35907;SDS011;22003;50.320;8.054;2022-09-09T06:58:42;7.32;;;1.60;;
35907;SDS011;22003;50.320;8.054;2022-09-09T07:01:12;3.20;;;1.35;;
35907;SDS011;22003;50.320;8.054;2022-09-09T07:03:38;4.80;;;1.55;;
35907;SDS011;22003;50.320;8.054;2022-09-09T07:06:05;1.85;;;1.23;;
35907;SDS011;22003;50.320;8.054;2022-09-09T07:08:32;3.55;;;1.60;;
35907;SDS011;22003;50.320;8.054;2022-09-09T07:11:04;2.67;;;1.30;;
35907;SDS011;22003;50.320;8.054;2022-09-09T07:13:31;2.38;;;1.42;;
35907;SDS011;22003;50.320;8.054;2022-09-09T07:16:06;4.65;;;1.25;;
35907;SDS011;22003;50.320;8.054;2022-09-09T07:18:33;5.50;;;1.63;;
35907;SDS011;22003;50.320;8.054;2022-09-09T07:20:59;5.70;;;1.48;;
35907;SDS011;22003;50.320;8.054;2022-09-09T07:23:25;3.55;;;1.60;;
35907;SDS011;22003;50.320;8.054;2022-09-09T07:25:51;4.72;;;1.23;;
35907;SDS011;22003;50.320;8.054;2022-09-09T07:28:17;2.00;;;1.20;;
35907;SDS011;22003;50.320;8.054;2022-09-09T07:30:43;4.75;;;1.17;;
35907;SDS011;22003;50.320;8.054;2022-09-09T07:33:09;3.63;;;1.48;;
35907;SDS011;22003;50.320;8.054;2022-09-09T07:35:35;5.20;;;1.25;;
35907;SDS011;22003;50.320;8.054;2022-09-09T07:38:01;4.38;;;1.35;;
35907;SDS011;22003;50.320;8.054;2022-09-09T07:40:28;4.53;;;0.98;;
35907;SDS011;22003;50.320;8.054;2022-09-09T07:42:54;5.55;;;1.23;;
35907;SDS011;22003;50.320;8.054;2022-09-09T07:45:19;3.85;;;1.17;;
35907;SDS011;22003;50.320;8.054;2022-09-09T07:47:44;3.30;;;1.05;;
35907;SDS011;22003;50.320;8.054;2022-09-09T07:50:10;4.55;;;0.80;;
35907;SDS011;22003;50.320;8.054;2022-09-09T07:52:36;4.80;;;1.17;;
35907;SDS011;22003;50.320;8.054;2022-09-09T07:55:02;6.03;;;1.00;;
35907;SDS011;22003;50.320;8.054;2022-09-09T07:57:29;6.70;;;0.90;;
35907;SDS011;22003;50.320;8.054;2022-09-09T07:59:58;3.50;;;1.10;;
35907;SDS011;22003;50.320;8.054;2022-09-09T08:02:23;6.70;;;1.20;;
35907;SDS011;22003;50.320;8.054;2022-09-09T08:04:50;3.57;;;0.80;;
35907;SDS011;22003;50.320;8.054;2022-09-09T08:07:16;6.30;;;1.20;;
35907;SDS011;22003;50.320;8.054;2022-09-09T08:09:42;9.13;;;1.10;;
35907;SDS011;22003;50.320;8.054;2022-09-09T08:12:09;4.22;;;0.90;;
35907;SDS011;22003;50.320;8.054;2022-09-09T08:14:35;3.75;;;0.98;;
35907;SDS011;22003;50.320;8.054;2022-09-09T08:17:01;4.25;;;1.27;;
35907;SDS011;22003;50.320;8.054;2022-09-09T08:19:26;7.35;;;1.15;;
35907;SDS011;22003;50.320;8.054;2022-09-09T08:21:54;3.92;;;1.35;;
35907;SDS011;22003;50.320;8.054;2022-09-09T08:24:19;5.18;;;1.38;;
35907;SDS011;22003;50.320;8.054;2022-09-09T08:26:45;2.90;;;0.80;;
35907;SDS011;22003;50.320;8.054;2022-09-09T08:29:14;4.15;;;0.90;;
35907;SDS011;22003;50.320;8.054;2022-09-09T08:31:42;9.57;;;1.88;;
35907;SDS011;22003;50.320;8.054;2022-09-09T08:34:12;3.35;;;0.93;;
35907;SDS011;22003;50.320;8.054;2022-09-09T08:36:39;6.13;;;1.00;;
35907;SDS011;22003;50.320;8.054;2022-09-09T08:39:07;3.58;;;1.08;;
35907;SDS011;22003;50.320;8.054;2022-09-09T08:49:27;2.65;;;0.80;;
35907;SDS011;22003;50.320;8.054;2022-09-09T08:52:15;4.47;;;0.88;;
35907;SDS011;22003;50.320;8.054;2022-09-09T08:54:44;4.00;;;1.15;;
35907;SDS011;22003;50.320;8.054;2022-09-09T08:57:11;3.90;;;0.80;;
35907;SDS011;22003;50.320;8.054;2022-09-09T08:59:41;4.90;;;1.05;;
35907;SDS011;22003;50.320;8.054;2022-09-09T09:05:09;3.63;;;1.10;;
35907;SDS011;22003;50.320;8.054;2022-09-09T09:07:54;5.57;;;0.80;;
35907;SDS011;22003;50.320;8.054;2022-09-09T09:13:15;4.40;;;1.15;;
35907;SDS011;22003;50.320;8.054;2022-09-09T09:15:46;5.38;;;1.00;;
35907;SDS011;22003;50.320;8.054;2022-09-09T09:18:17;2.75;;;0.70;;
35907;SDS011;22003;50.320;8.054;2022-09-09T09:21:03;9.38;;;1.42;;
35907;SDS011;22003;50.320;8.054;2022-09-09T09:23:40;4.60;;;0.93;;
35907;SDS011;22003;50.320;8.054;2022-09-09T09:26:10;6.28;;;1.17;;
35907;SDS011;22003;50.320;8.054;2022-09-09T09:28:38;4.82;;;1.10;;
35907;SDS011;22003;50.320;8.054;2022-09-09T09:31:05;8.27;;;1.13;;
35907;SDS011;22003;50.320;8.054;2022-09-09T09:33:44;3.83;;;0.95;;
35907;SDS011;22003;50.320;8.054;2022-09-09T09:36:11;4.20;;;0.73;;
35907;SDS011;22003;50.320;8.054;2022-09-09T09:38:38;4.10;;;0.80;;
35907;SDS011;22003;50.320;8.054;2022-09-09T09:41:04;2.97;;;0.82;;
35907;SDS011;22003;50.320;8.054;2022-09-09T09:43:34;2.30;;;0.60;;
35907;SDS011;22003;50.320;8.054;2022-09-09T09:46:04;2.05;;;0.82;;
35907;SDS011;22003;50.320;8.054;2022-09-09T09:48:30;4.03;;;0.95;;
35907;SDS011;22003;50.320;8.054;2022-09-09T09:50:56;1.83;;;0.82;;
35907;SDS011;22003;50.320;8.054;2022-09-09T09:53:29;5.07;;;1.00;;
35907;SDS011;22003;50.320;8.054;2022-09-09T09:56:05;6.72;;;0.90;;
35907;SDS011;22003;50.320;8.054;2022-09-09T09:58:46;4.65;;;1.00;;
35907;SDS011;22003;50.320;8.054;2022-09-09T10:01:22;3.08;;;1.02;;
35907;SDS011;22003;50.320;8.054;2022-09-09T10:03:59;3.80;;;0.70;;
35907;SDS011;22003;50.320;8.054;2022-09-09T10:06:34;4.93;;;1.40;;
35907;SDS011;22003;50.320;8.054;2022-09-09T10:09:01;3.42;;;1.25;;
35907;SDS011;22003;50.320;8.054;2022-09-09T10:11:39;2.83;;;1.10;;
35907;SDS011;22003;50.320;8.054;2022-09-09T10:14:18;4.70;;;0.80;;
35907;SDS011;22003;50.320;8.054;2022-09-09T10:19:34;4.35;;;1.30;;
35907;SDS011;22003;50.320;8.054;2022-09-09T10:24:48;6.05;;;0.90;;
35907;SDS011;22003;50.320;8.054;2022-09-09T10:27:44;2.83;;;0.98;;
35907;SDS011;22003;50.320;8.054;2022-09-09T10:33:22;2.42;;;0.68;;
35907;SDS011;22003;50.320;8.054;2022-09-09T10:36:12;5.93;;;0.93;;
35907;SDS011;22003;50.320;8.054;2022-09-09T10:38:45;3.15;;;0.70;;
35907;SDS011;22003;50.320;8.054;2022-09-09T10:41:15;1.30;;;0.63;;
35907;SDS011;22003;50.320;8.054;2022-09-09T10:44:34;4.57;;;1.13;;
35907;SDS011;22003;50.320;8.054;2022-09-09T10:49:42;1.98;;;0.60;;
35907;SDS011;22003;50.320;8.054;2022-09-09T10:52:24;1.83;;;0.60;;
35907;SDS011;22003;50.320;8.054;2022-09-09T10:55:00;2.00;;;0.70;;
35907;SDS011;22003;50.320;8.054;2022-09-09T10:57:41;2.13;;;0.57;;
35907;SDS011;22003;50.320;8.054;2022-09-09T11:00:21;4.22;;;0.85;;
35907;SDS011;22003;50.320;8.054;2022-09-09T11:02:52;3.17;;;0.80;;
35907;SDS011;22003;50.320;8.054;2022-09-09T11:05:26;3.28;;;0.50;;
35907;SDS011;22003;50.320;8.054;2022-09-09T11:07:58;1.30;;;0.30;;
35907;SDS011;22003;50.320;8.054;2022-09-09T11:10:40;2.80;;;0.60;;
35907;SDS011;22003;50.320;8.054;2022-09-09T11:18:50;3.00;;;0.57;;
35907;SDS011;22003;50.320;8.054;2022-09-09T11:21:46;4.53;;;0.88;;
35907;SDS011;22003;50.320;8.054;2022-09-09T11:26:54;1.75;;;0.77;;
35907;SDS011;22003;50.320;8.054;2022-09-09T11:29:35;2.67;;;0.50;;
35907;SDS011;22003;50.320;8.054;2022-09-09T11:32:23;2.28;;;0.70;;
35907;SDS011;22003;50.320;8.054;2022-09-09T11:35:03;2.90;;;0.73;;
35907;SDS011;22003;50.320;8.054;2022-09-09T11:40:16;3.20;;;0.80;;
35907;SDS011;22003;50.320;8.054;2022-09-09T11:45:42;1.92;;;0.50;;
35907;SDS011;22003;50.320;8.054;2022-09-09T11:48:26;3.78;;;0.80;;
35907;SDS011;22003;50.320;8.054;2022-09-09T11:51:01;2.10;;;0.60;;
35907;SDS011;22003;50.320;8.054;2022-09-09T11:53:35;3.35;;;0.77;;
35907;SDS011;22003;50.320;8.054;2022-09-09T11:56:13;5.35;;;0.65;;
35907;SDS011;22003;50.320;8.054;2022-09-09T12:02:12;2.38;;;0.60;;
35907;SDS011;22003;50.320;8.054;2022-09-09T12:09:58;2.97;;;0.77;;
35907;SDS011;22003;50.320;8.054;2022-09-09T12:12:32;2.20;;;0.50;;
35907;SDS011;22003;50.320;8.054;2022-09-09T12:17:43;4.18;;;0.65;;
35907;SDS011;22003;50.320;8.054;2022-09-09T12:29:05;4.10;;;0.70;;
35907;SDS011;22003;50.320;8.054;2022-09-09T12:34:30;5.93;;;1.15;;
35907;SDS011;22003;50.320;8.054;2022-09-09T12:37:06;1.98;;;0.73;;
35907;SDS011;22003;50.320;8.054;2022-09-09T12:39:44;4.72;;;1.20;;
35907;SDS011;22003;50.320;8.054;2022-09-09T12:42:23;3.70;;;0.90;;
35907;SDS011;22003;50.320;8.054;2022-09-09T12:44:50;4.88;;;1.23;;
35907;SDS011;22003;50.320;8.054;2022-09-09T12:47:16;5.88;;;0.80;;
35907;SDS011;22003;50.320;8.054;2022-09-09T12:49:45;4.38;;;0.80;;
35907;SDS011;22003;50.320;8.054;2022-09-09T12:52:16;2.25;;;0.65;;
35907;SDS011;22003;50.320;8.054;2022-09-09T12:54:47;3.28;;;0.93;;
35907;SDS011;22003;50.320;8.054;2022-09-09T12:57:15;6.30;;;0.68;;
35907;SDS011;22003;50.320;8.054;2022-09-09T12:59:41;2.33;;;0.73;;
35907;SDS011;22003;50.320;8.054;2022-09-09T13:02:23;3.42;;;1.40;;
35907;SDS011;22003;50.320;8.054;2022-09-09T13:04:51;2.25;;;0.68;;
35907;SDS011;22003;50.320;8.054;2022-09-09T13:07:18;3.33;;;0.57;;
35907;SDS011;22003;50.320;8.054;2022-09-09T13:09:44;4.80;;;0.85;;
35907;SDS011;22003;50.320;8.054;2022-09-09T13:12:13;1.38;;;0.60;;
35907;SDS011;22003;50.320;8.054;2022-09-09T13:14:42;2.97;;;0.63;;
35907;SDS011;22003;50.320;8.054;2022-09-09T13:17:15;5.70;;;0.77;;
35907;SDS011;22003;50.320;8.054;2022-09-09T13:19:44;2.80;;;0.90;;
35907;SDS011;22003;50.320;8.054;2022-09-09T13:25:00;2.97;;;0.50;;
35907;SDS011;22003;50.320;8.054;2022-09-09T13:27:30;1.83;;;0.60;;
35907;SDS011;22003;50.320;8.054;2022-09-09T13:29:58;4.13;;;1.02;;
35907;SDS011;22003;50.320;8.054;2022-09-09T13:32:24;2.67;;;0.50;;
35907;SDS011;22003;50.320;8.054;2022-09-09T13:34:55;2.83;;;0.90;;
35907;SDS011;22003;50.320;8.054;2022-09-09T13:40:17;2.20;;;0.68;;
35907;SDS011;22003;50.320;8.054;2022-09-09T13:45:16;1.85;;;0.40;;
35907;SDS011;22003;50.320;8.054;2022-09-09T13:47:45;2.00;;;0.43;;
35907;SDS011;22003;50.320;8.054;2022-09-09T13:50:25;5.97;;;0.80;;
35907;SDS011;22003;50.320;8.054;2022-09-09T13:52:55;5.28;;;0.80;;
35907;SDS011;22003;50.320;8.054;2022-09-09T13:55:26;2.13;;;0.57;;
35907;SDS011;22003;50.320;8.054;2022-09-09T14:00:30;1.85;;;0.55;;
35907;SDS011;22003;50.320;8.054;2022-09-09T14:02:57;1.27;;;0.82;;
35907;SDS011;22003;50.320;8.054;2022-09-09T14:05:22;2.20;;;0.70;;
35907;SDS011;22003;50.320;8.054;2022-09-09T14:07:48;4.15;;;0.70;;
35907;SDS011;22003;50.320;8.054;2022-09-09T14:10:14;2.67;;;0.60;;
35907;SDS011;22003;50.320;8.054;2022-09-09T14:12:40;0.88;;;0.40;;
35907;SDS011;22003;50.320;8.054;2022-09-09T14:15:06;2.90;;;0.77;;
35907;SDS011;22003;50.320;8.054;2022-09-09T14:17:32;0.40;;;0.30;;
35907;SDS011;22003;50.320;8.054;2022-09-09T14:19:58;3.45;;;0.50;;
35907;SDS011;22003;50.320;8.054;2022-09-09T14:22:24;1.00;;;0.50;;
35907;SDS011;22003;50.320;8.054;2022-09-09T14:24:51;1.60;;;0.57;;
35907;SDS011;22003;50.320;8.054;2022-09-09T14:27:16;3.38;;;0.63;;
35907;SDS011;22003;50.320;8.054;2022-09-09T14:29:43;3.70;;;0.80;;
35907;SDS011;22003;50.320;8.054;2022-09-09T14:32:09;3.83;;;0.63;;
35907;SDS011;22003;50.320;8.054;2022-09-09T14:34:34;1.25;;;0.50;;
35907;SDS011;22003;50.320;8.054;2022-09-09T14:37:00;2.20;;;0.50;;
35907;SDS011;22003;50.320;8.054;2022-09-09T14:39:25;2.58;;;0.90;;
35907;SDS011;22003;50.320;8.054;2022-09-09T14:41:51;4.28;;;0.77;;
35907;SDS011;22003;50.320;8.054;2022-09-09T14:44:16;5.25;;;0.90;;
35907;SDS011;22003;50.320;8.054;2022-09-09T14:46:41;2.70;;;0.55;;
35907;SDS011;22003;50.320;8.054;2022-09-09T14:49:09;3.15;;;0.63;;
35907;SDS011;22003;50.320;8.054;2022-09-09T14:51:35;2.88;;;0.70;;
35907;SDS011;22003;50.320;8.054;2022-09-09T14:54:01;4.38;;;1.23;;
35907;SDS011;22003;50.320;8.054;2022-09-09T14:56:28;3.15;;;0.75;;
35907;SDS011;22003;50.320;8.054;2022-09-09T15:01:22;2.03;;;0.52;;
35907;SDS011;22003;50.320;8.054;2022-09-09T15:03:52;1.23;;;0.60;;
35907;SDS011;22003;50.320;8.054;2022-09-09T15:06:19;2.55;;;0.60;;
35907;SDS011;22003;50.320;8.054;2022-09-09T15:08:46;3.13;;;1.00;;
35907;SDS011;22003;50.320;8.054;2022-09-09T15:11:12;1.48;;;0.40;;
35907;SDS011;22003;50.320;8.054;2022-09-09T15:13:39;1.52;;;0.68;;
35907;SDS011;22003;50.320;8.054;2022-09-09T15:16:10;2.38;;;0.55;;
35907;SDS011;22003;50.320;8.054;2022-09-09T15:18:40;2.05;;;0.85;;
35907;SDS011;22003;50.320;8.054;2022-09-09T15:21:08;3.50;;;0.50;;
35907;SDS011;22003;50.320;8.054;2022-09-09T15:23:34;3.58;;;0.65;;
35907;SDS011;22003;50.320;8.054;2022-09-09T15:26:00;3.47;;;0.73;;
35907;SDS011;22003;50.320;8.054;2022-09-09T15:28:26;2.92;;;0.50;;
35907;SDS011;22003;50.320;8.054;2022-09-09T15:30:51;1.45;;;0.65;;
35907;SDS011;22003;50.320;8.054;2022-09-09T15:33:18;2.53;;;0.70;;
35907;SDS011;22003;50.320;8.054;2022-09-09T15:35:45;3.50;;;0.70;;
35907;SDS011;22003;50.320;8.054;2022-09-09T15:38:10;3.53;;;0.60;;
35907;SDS011;22003;50.320;8.054;2022-09-09T15:40:38;4.35;;;0.60;;
35907;SDS011;22003;50.320;8.054;2022-09-09T15:43:05;3.22;;;0.75;;
35907;SDS011;22003;50.320;8.054;2022-09-09T15:45:31;3.20;;;0.80;;
35907;SDS011;22003;50.320;8.054;2022-09-09T15:47:58;2.38;;;0.80;;
35907;SDS011;22003;50.320;8.054;2022-09-09T15:50:28;4.75;;;0.82;;
35907;SDS011;22003;50.320;8.054;2022-09-09T15:52:56;1.77;;;1.08;;
35907;SDS011;22003;50.320;8.054;2022-09-09T15:55:22;2.85;;;0.70;;
35907;SDS011;22003;50.320;8.054;2022-09-09T15:57:50;6.60;;;1.13;;
35907;SDS011;22003;50.320;8.054;2022-09-09T16:00:17;6.47;;;1.08;;
35907;SDS011;22003;50.320;8.054;2022-09-09T16:02:43;2.90;;;0.90;;
35907;SDS011;22003;50.320;8.054;2022-09-09T16:05:09;2.38;;;0.80;;
35907;SDS011;22003;50.320;8.054;2022-09-09T16:07:34;1.58;;;0.80;;
35907;SDS011;22003;50.320;8.054;2022-09-09T16:10:00;2.35;;;1.27;;
35907;SDS011;22003;50.320;8.054;2022-09-09T16:12:26;3.15;;;0.98;;
35907;SDS011;22003;50.320;8.054;2022-09-09T16:18:13;1.02;;;0.32;;
35907;SDS011;22003;50.320;8.054;2022-09-09T16:20:39;1.13;;;0.35;;
35907;SDS011;22003;50.320;8.054;2022-09-09T16:23:05;2.25;;;0.70;;
35907;SDS011;22003;50.320;8.054;2022-09-09T16:25:30;1.77;;;0.55;;
35907;SDS011;22003;50.320;8.054;2022-09-09T16:27:55;0.95;;;0.50;;
35907;SDS011;22003;50.320;8.054;2022-09-09T16:30:21;0.75;;;0.65;;
35907;SDS011;22003;50.320;8.054;2022-09-09T16:32:46;3.03;;;0.93;;
35907;SDS011;22003;50.320;8.054;2022-09-09T16:35:12;2.17;;;0.73;;
35907;SDS011;22003;50.320;8.054;2022-09-09T16:37:37;2.85;;;1.05;;
35907;SDS011;22003;50.320;8.054;2022-09-09T16:40:02;0.82;;;0.40;;
35907;SDS011;22003;50.320;8.054;2022-09-09T16:42:28;1.88;;;0.68;;
35907;SDS011;22003;50.320;8.054;2022-09-09T16:44:53;2.15;;;0.65;;
35907;SDS011;22003;50.320;8.054;2022-09-09T16:47:18;2.20;;;0.65;;
35907;SDS011;22003;50.320;8.054;2022-09-09T16:49:44;2.90;;;0.55;;
35907;SDS011;22003;50.320;8.054;2022-09-09T16:52:09;0.75;;;0.30;;
35907;SDS011;22003;50.320;8.054;2022-09-09T16:54:34;1.27;;;0.60;;
35907;SDS011;22003;50.320;8.054;2022-09-09T16:57:00;1.35;;;0.43;;
35907;SDS011;22003;50.320;8.054;2022-09-09T16:59:25;1.88;;;0.40;;
35907;SDS011;22003;50.320;8.054;2022-09-09T17:01:51;3.95;;;0.73;;
35907;SDS011;22003;50.320;8.054;2022-09-09T17:04:17;2.58;;;0.50;;
35907;SDS011;22003;50.320;8.054;2022-09-09T17:06:49;1.75;;;0.40;;
35907;SDS011;22003;50.320;8.054;2022-09-09T17:09:16;0.73;;;0.47;;
35907;SDS011;22003;50.320;8.054;2022-09-09T17:11:42;2.22;;;0.60;;
35907;SDS011;22003;50.320;8.054;2022-09-09T17:14:11;1.65;;;0.70;;
35907;SDS011;22003;50.320;8.054;2022-09-09T17:16:40;2.00;;;0.50;;
35907;SDS011;22003;50.320;8.054;2022-09-09T17:19:06;1.20;;;0.38;;
35907;SDS011;22003;50.320;8.054;2022-09-09T17:21:33;2.63;;;0.60;;
35907;SDS011;22003;50.320;8.054;2022-09-09T17:23:58;2.50;;;0.55;;
35907;SDS011;22003;50.320;8.054;2022-09-09T17:26:26;1.60;;;0.55;;
35907;SDS011;22003;50.320;8.054;2022-09-09T17:28:53;1.38;;;0.30;;
35907;SDS011;22003;50.320;8.054;2022-09-09T17:31:21;2.72;;;0.43;;
35907;SDS011;22003;50.320;8.054;2022-09-09T17:33:48;1.00;;;0.40;;
35907;SDS011;22003;50.320;8.054;2022-09-09T17:36:15;1.85;;;0.40;;
35907;SDS011;22003;50.320;8.054;2022-09-09T17:38:42;1.75;;;0.28;;
35907;SDS011;22003;50.320;8.054;2022-09-09T17:43:36;0.68;;;0.50;;
35907;SDS011;22003;50.320;8.054;2022-09-09T17:48:36;1.88;;;0.57;;
35907;SDS011;22003;50.320;8.054;2022-09-09T17:51:02;0.65;;;0.30;;
35907;SDS011;22003;50.320;8.054;2022-09-09T17:53:28;1.23;;;0.40;;
35907;SDS011;22003;50.320;8.054;2022-09-09T17:55:54;3.67;;;0.43;;
35907;SDS011;22003;50.320;8.054;2022-09-09T17:58:20;0.90;;;0.57;;
35907;SDS011;22003;50.320;8.054;2022-09-09T18:00:46;1.73;;;0.50;;
35907;SDS011;22003;50.320;8.054;2022-09-09T18:03:11;1.73;;;0.60;;
35907;SDS011;22003;50.320;8.054;2022-09-09T18:05:37;0.60;;;0.40;;
35907;SDS011;22003;50.320;8.054;2022-09-09T18:08:02;2.95;;;0.50;;
35907;SDS011;22003;50.320;8.054;2022-09-09T18:10:28;0.77;;;0.40;;
35907;SDS011;22003;50.320;8.054;2022-09-09T18:12:53;2.75;;;0.80;;
35907;SDS011;22003;50.320;8.054;2022-09-09T18:15:18;1.90;;;0.50;;
35907;SDS011;22003;50.320;8.054;2022-09-09T18:17:44;1.25;;;0.70;;
35907;SDS011;22003;50.320;8.054;2022-09-09T18:20:09;0.90;;;0.70;;
35907;SDS011;22003;50.320;8.054;2022-09-09T18:22:35;1.63;;;0.68;;
35907;SDS011;22003;50.320;8.054;2022-09-09T18:25:00;2.60;;;0.70;;
35907;SDS011;22003;50.320;8.054;2022-09-09T18:27:26;2.92;;;0.85;;
35907;SDS011;22003;50.320;8.054;2022-09-09T18:29:52;1.60;;;0.50;;
35907;SDS011;22003;50.320;8.054;2022-09-09T18:32:17;2.92;;;0.70;;
35907;SDS011;22003;50.320;8.054;2022-09-09T18:34:44;1.65;;;0.70;;
35907;SDS011;22003;50.320;8.054;2022-09-09T18:37:09;1.17;;;0.50;;
35907;SDS011;22003;50.320;8.054;2022-09-09T18:39:34;1.92;;;0.57;;
35907;SDS011;22003;50.320;8.054;2022-09-09T18:42:00;0.82;;;0.50;;
35907;SDS011;22003;50.320;8.054;2022-09-09T18:44:27;2.30;;;0.77;;
35907;SDS011;22003;50.320;8.054;2022-09-09T18:46:54;5.57;;;1.13;;
35907;SDS011;22003;50.320;8.054;2022-09-09T18:49:20;1.90;;;0.47;;
35907;SDS011;22003;50.320;8.054;2022-09-09T18:51:47;0.65;;;0.40;;
35907;SDS011;22003;50.320;8.054;2022-09-09T18:54:17;1.55;;;0.73;;
35907;SDS011;22003;50.320;8.054;2022-09-09T18:56:44;1.77;;;0.50;;
35907;SDS011;22003;50.320;8.054;2022-09-09T18:59:11;1.98;;;0.70;;
35907;SDS011;22003;50.320;8.054;2022-09-09T19:01:38;2.22;;;0.47;;
35907;SDS011;22003;50.320;8.054;2022-09-09T19:04:05;1.48;;;0.40;;
35907;SDS011;22003;50.320;8.054;2022-09-09T19:06:32;6.13;;;0.60;;
35907;SDS011;22003;50.320;8.054;2022-09-09T19:09:00;1.65;;;0.73;;
35907;SDS011;22003;50.320;8.054;2022-09-09T19:11:26;2.00;;;0.80;;
35907;SDS011;22003;50.320;8.054;2022-09-09T19:13:54;0.95;;;0.50;;
35907;SDS011;22003;50.320;8.054;2022-09-09T19:16:25;2.05;;;0.68;;
35907;SDS011;22003;50.320;8.054;2022-09-09T19:18:55;3.03;;;0.80;;
35907;SDS011;22003;50.320;8.054;2022-09-09T19:21:24;1.45;;;0.80;;
35907;SDS011;22003;50.320;8.054;2022-09-09T19:23:56;6.32;;;0.73;;
35907;SDS011;22003;50.320;8.054;2022-09-09T19:26:27;0.73;;;0.63;;
35907;SDS011;22003;50.320;8.054;2022-09-09T19:28:53;2.58;;;0.50;;
35907;SDS011;22003;50.320;8.054;2022-09-09T19:31:21;5.82;;;1.13;;
35907;SDS011;22003;50.320;8.054;2022-09-09T19:33:47;4.43;;;0.75;;
35907;SDS011;22003;50.320;8.054;2022-09-09T19:36:15;2.25;;;0.68;;
35907;SDS011;22003;50.320;8.054;2022-09-09T19:38:42;0.90;;;0.35;;
35907;SDS011;22003;50.320;8.054;2022-09-09T19:41:10;2.58;;;0.60;;
35907;SDS011;22003;50.320;8.054;2022-09-09T19:43:37;2.70;;;0.50;;
35907;SDS011;22003;50.320;8.054;2022-09-09T19:46:04;2.33;;;0.60;;
35907;SDS011;22003;50.320;8.054;2022-09-09T19:48:34;1.75;;;0.55;;
35907;SDS011;22003;50.320;8.054;2022-09-09T19:53:37;1.48;;;0.70;;
35907;SDS011;22003;50.320;8.054;2022-09-09T19:56:05;1.23;;;0.65;;
35907;SDS011;22003;50.320;8.054;2022-09-09T19:58:35;1.70;;;0.40;;
35907;SDS011;22003;50.320;8.054;2022-09-09T20:01:08;1.05;;;0.70;;
35907;SDS011;22003;50.320;8.054;2022-09-09T20:03:35;1.00;;;0.60;;
35907;SDS011;22003;50.320;8.054;2022-09-09T20:06:02;0.85;;;0.47;;
35907;SDS011;22003;50.320;8.054;2022-09-09T20:08:28;0.88;;;0.38;;
35907;SDS011;22003;50.320;8.054;2022-09-09T20:10:53;1.25;;;0.35;;
35907;SDS011;22003;50.320;8.054;2022-09-09T20:13:19;1.50;;;0.57;;
35907;SDS011;22003;50.320;8.054;2022-09-09T20:15:45;1.45;;;0.50;;
35907;SDS011;22003;50.320;8.054;2022-09-09T20:18:20;1.23;;;0.30;;
35907;SDS011;22003;50.320;8.054;2022-09-09T20:20:45;3.35;;;0.50;;
35907;SDS011;22003;50.320;8.054;2022-09-09T20:23:12;1.15;;;0.35;;